Time,TemperatureF,DewpointF,PressureIn,WindDirection,WindDirectionDegrees,WindSpeedMPH,WindSpeedGustMPH,Humidity,HourlyPrecipIn,Conditions,Clouds,dailyrainin,SolarRadiationWatts/m^2,SoftwareType,DateUTC
2013-01-08 00:02:00,18.0,16.0,-100.00,SW,229,0.0,3.0,91,0.00,,,0.01,0.000000,,2013-01-08 06:02:00,
2013-01-08 00:12:00,18.0,16.0,-100.00,SW,229,0.0,3.0,91,0.00,,,0.01,0.000000,,2013-01-08 06:12:00,
2013-01-08 00:33:00,14.0,11.0,-100.00,WNW,283,0.0,3.0,88,0.00,,,0.01,0.000000,,2013-01-08 06:33:00,
2013-01-08 00:43:00,14.0,11.0,-100.00,WNW,283,0.0,3.0,88,0.00,,,0.01,0.000000,,2013-01-08 06:43:00,
2013-01-08 00:53:00,14.0,11.0,-100.00,WNW,283,0.0,3.0,88,0.00,,,0.01,0.000000,,2013-01-08 06:53:00,
2013-01-08 01:02:00,14.0,11.0,-100.00,WNW,283,0.0,3.0,88,0.00,,,0.01,0.000000,,2013-01-08 07:02:00,
2013-01-08 01:12:00,14.0,11.0,-100.00,WNW,283,0.0,3.0,88,0.00,,,0.01,0.000000,,2013-01-08 07:12:00,
2013-01-08 01:42:00,10.0,6.0,-100.00,SSE,157,1.0,2.0,84,0.00,,,0.01,0.000000,,2013-01-08 07:42:00,
2013-01-08 01:52:00,10.0,6.0,-100.00,SSE,157,1.0,2.0,84,0.00,,,0.01,0.000000,,2013-01-08 07:52:00,
2013-01-08 02:02:00,10.0,6.0,-100.00,SSE,157,1.0,2.0,84,0.00,,,0.01,0.000000,,2013-01-08 08:02:00,
2013-01-08 02:12:00,10.0,6.0,-100.00,SSE,157,1.0,2.0,84,0.00,,,0.01,0.000000,,2013-01-08 08:12:00,
2013-01-08 02:42:00,10.0,7.0,-100.00,NE,49,0.0,1.0,86,0.00,,,0.01,0.000000,,2013-01-08 08:42:00,
2013-01-08 02:53:00,10.0,7.0,-100.00,NE,49,0.0,1.0,86,0.00,,,0.01,0.000000,,2013-01-08 08:53:00,
2013-01-08 03:02:00,10.0,7.0,-100.00,NE,49,0.0,1.0,86,0.00,,,0.01,0.000000,,2013-01-08 09:02:00,
2013-01-08 03:12:00,10.0,7.0,-100.00,NE,49,0.0,1.0,86,0.00,,,0.01,0.000000,,2013-01-08 09:12:00,
2013-01-08 03:33:00,8.0,4.0,-100.00,North,1,0.0,1.0,84,0.00,,,0.01,0.000000,,2013-01-08 09:33:00,
2013-01-08 03:42:00,8.0,4.0,-100.00,North,1,0.0,1.0,84,0.00,,,0.01,0.000000,,2013-01-08 09:42:00,
2013-01-08 03:52:00,8.0,4.0,-100.00,North,1,0.0,1.0,84,0.00,,,0.01,0.000000,,2013-01-08 09:52:00,
2013-01-08 04:02:00,8.0,4.0,-100.00,North,1,0.0,1.0,84,0.00,,,0.01,0.000000,,2013-01-08 10:02:00,
2013-01-08 04:12:00,8.0,4.0,-100.00,North,1,0.0,1.0,84,0.00,,,0.01,0.000000,,2013-01-08 10:12:00,
2013-01-08 04:33:00,6.0,1.0,-100.00,NE,55,0.0,1.0,81,0.00,,,0.01,0.000000,,2013-01-08 10:33:00,
2013-01-08 04:42:00,6.0,1.0,-100.00,NE,55,0.0,1.0,81,0.00,,,0.01,0.000000,,2013-01-08 10:42:00,
2013-01-08 04:52:00,6.0,1.0,-100.00,NE,55,0.0,1.0,81,0.00,,,0.01,0.000000,,2013-01-08 10:52:00,
2013-01-08 05:02:00,6.0,1.0,-100.00,NE,55,0.0,1.0,81,0.00,,,0.01,0.000000,,2013-01-08 11:02:00,
2013-01-08 05:12:00,6.0,1.0,-100.00,NE,55,0.0,1.0,81,0.00,,,0.01,0.000000,,2013-01-08 11:12:00,
2013-01-08 05:33:00,4.0,0.0,-100.00,NE,34,0.0,1.0,82,0.00,,,0.01,0.000000,,2013-01-08 11:33:00,
2013-01-08 05:42:00,4.0,0.0,-100.00,NE,34,0.0,1.0,82,0.00,,,0.01,0.000000,,2013-01-08 11:42:00,
2013-01-08 05:53:00,4.0,0.0,-100.00,NE,34,0.0,1.0,82,0.00,,,0.01,0.000000,,2013-01-08 11:53:00,
2013-01-08 06:03:00,4.0,0.0,-100.00,NE,34,0.0,1.0,82,0.00,,,0.01,0.000000,,2013-01-08 12:03:00,
2013-01-08 06:12:00,4.0,0.0,-100.00,NE,34,0.0,1.0,82,0.00,,,0.01,0.000000,,2013-01-08 12:12:00,
2013-01-08 06:33:00,5.0,2.0,-100.00,North,10,0.0,1.0,85,0.00,,,0.01,0.000000,,2013-01-08 12:33:00,
2013-01-08 06:43:00,5.0,2.0,-100.00,North,10,0.0,1.0,85,0.00,,,0.01,0.000000,,2013-01-08 12:43:00,
2013-01-08 06:53:00,5.0,2.0,-100.00,North,10,0.0,1.0,85,0.00,,,0.01,0.000000,,2013-01-08 12:53:00,
2013-01-08 07:03:00,5.0,2.0,-100.00,North,10,0.0,1.0,85,0.00,,,0.01,0.000000,,2013-01-08 13:03:00,
2013-01-08 07:12:00,5.0,2.0,-100.00,North,10,0.0,1.0,85,0.00,,,0.01,0.000000,,2013-01-08 13:12:00,
2013-01-08 07:33:00,4.0,0.0,-100.00,North,3,0.0,2.0,82,0.00,,,0.01,0.000000,,2013-01-08 13:33:00,
2013-01-08 07:43:00,4.0,0.0,-100.00,North,3,0.0,2.0,82,0.00,,,0.01,0.000000,,2013-01-08 13:43:00,
2013-01-08 07:53:00,4.0,0.0,-100.00,North,3,0.0,2.0,82,0.00,,,0.01,0.000000,,2013-01-08 13:53:00,
2013-01-08 08:02:00,4.0,0.0,-100.00,North,3,0.0,2.0,82,0.00,,,0.01,0.000000,,2013-01-08 14:02:00,
2013-01-08 08:12:00,4.0,0.0,-100.00,North,3,0.0,2.0,82,0.00,,,0.01,0.000000,,2013-01-08 14:12:00,
2013-01-08 08:43:00,4.0,-1.0,-100.00,NNE,33,0.0,2.0,81,0.00,,,0.01,7.000000,,2013-01-08 14:43:00,
2013-01-08 08:53:00,4.0,-1.0,-100.00,NNE,33,0.0,2.0,81,0.00,,,0.01,7.000000,,2013-01-08 14:53:00,
2013-01-08 09:03:00,4.0,-1.0,-100.00,NNE,33,0.0,2.0,81,0.00,,,0.01,7.000000,,2013-01-08 15:03:00,
2013-01-08 09:12:00,4.0,-1.0,-100.00,NNE,33,0.0,2.0,81,0.00,,,0.01,7.000000,,2013-01-08 15:12:00,
2013-01-08 09:33:00,13.0,10.0,-100.00,NE,48,2.0,4.0,86,0.00,,,0.01,57.000000,,2013-01-08 15:33:00,
2013-01-08 09:43:00,13.0,10.0,-100.00,NE,48,2.0,4.0,86,0.00,,,0.01,57.000000,,2013-01-08 15:43:00,
2013-01-08 09:53:00,13.0,10.0,-100.00,NE,48,2.0,4.0,86,0.00,,,0.01,57.000000,,2013-01-08 15:53:00,
2013-01-08 10:03:00,13.0,10.0,-100.00,NE,48,2.0,4.0,86,0.00,,,0.01,57.000000,,2013-01-08 16:03:00,
2013-01-08 10:12:00,13.0,10.0,-100.00,NE,48,2.0,4.0,86,0.00,,,0.01,57.000000,,2013-01-08 16:12:00,
2013-01-08 10:43:00,19.0,16.0,-100.00,NE,53,0.0,3.0,88,0.00,,,0.01,94.000000,,2013-01-08 16:43:00,
2013-01-08 10:53:00,19.0,16.0,-100.00,NE,53,0.0,3.0,88,0.00,,,0.01,94.000000,,2013-01-08 16:53:00,
2013-01-08 11:03:00,19.0,16.0,-100.00,NE,53,0.0,3.0,88,0.00,,,0.01,94.000000,,2013-01-08 17:03:00,
2013-01-08 11:13:00,19.0,16.0,-100.00,NE,53,0.0,3.0,88,0.00,,,0.01,94.000000,,2013-01-08 17:13:00,
2013-01-08 11:43:00,24.0,20.0,-100.00,East,82,2.0,5.0,84,0.00,,,0.01,149.000000,,2013-01-08 17:43:00,
2013-01-08 11:54:00,24.0,20.0,-100.00,East,82,2.0,5.0,84,0.00,,,0.01,149.000000,,2013-01-08 17:54:00,
2013-01-08 12:03:00,24.0,20.0,-100.00,East,82,2.0,5.0,84,0.00,,,0.01,149.000000,,2013-01-08 18:03:00,
2013-01-08 12:13:00,24.0,20.0,-100.00,East,82,2.0,5.0,84,0.00,,,0.01,149.000000,,2013-01-08 18:13:00,
2013-01-08 12:33:00,31.0,24.0,-100.00,ENE,70,2.0,6.0,74,0.00,,,0.01,247.000000,,2013-01-08 18:33:00,
2013-01-08 12:43:00,31.0,24.0,-100.00,ENE,70,2.0,6.0,74,0.00,,,0.01,247.000000,,2013-01-08 18:43:00,
2013-01-08 12:53:00,31.0,24.0,-100.00,ENE,70,2.0,6.0,74,0.00,,,0.01,247.000000,,2013-01-08 18:53:00,
2013-01-08 13:03:00,31.0,24.0,-100.00,ENE,70,2.0,6.0,74,0.00,,,0.01,247.000000,,2013-01-08 19:03:00,
2013-01-08 13:12:00,31.0,24.0,-100.00,ENE,70,2.0,6.0,74,0.00,,,0.01,247.000000,,2013-01-08 19:12:00,
2013-01-08 13:43:00,33.0,23.0,-100.00,East,88,4.0,7.0,66,0.00,,,0.01,181.000000,,2013-01-08 19:43:00,
2013-01-08 13:53:00,33.0,23.0,-100.00,East,88,4.0,7.0,66,0.00,,,0.01,181.000000,,2013-01-08 19:53:00,
2013-01-08 14:03:00,33.0,23.0,-100.00,East,88,4.0,7.0,66,0.00,,,0.01,181.000000,,2013-01-08 20:03:00,
2013-01-08 14:12:00,33.0,23.0,-100.00,East,88,4.0,7.0,66,0.00,,,0.01,181.000000,,2013-01-08 20:12:00,
2013-01-08 14:43:00,36.0,24.0,-100.00,ESE,107,4.0,10.0,61,0.00,,,0.00,166.000000,,2013-01-08 20:43:00,
2013-01-08 14:54:00,36.0,24.0,-100.00,ESE,107,4.0,10.0,61,0.00,,,0.00,166.000000,,2013-01-08 20:54:00,
2013-01-08 15:03:00,36.0,24.0,-100.00,ESE,107,4.0,10.0,61,0.00,,,0.00,166.000000,,2013-01-08 21:03:00,
2013-01-08 15:12:00,36.0,24.0,-100.00,ESE,107,4.0,10.0,61,0.00,,,0.00,166.000000,,2013-01-08 21:12:00,
2013-01-08 15:43:00,37.0,24.0,-100.00,SE,128,5.0,11.0,59,0.00,,,0.00,104.000000,,2013-01-08 21:43:00,
2013-01-08 15:53:00,37.0,24.0,-100.00,SE,128,5.0,11.0,59,0.00,,,0.00,104.000000,,2013-01-08 21:53:00,
2013-01-08 16:03:00,37.0,24.0,-100.00,SE,128,5.0,11.0,59,0.00,,,0.00,104.000000,,2013-01-08 22:03:00,
2013-01-08 16:12:00,37.0,24.0,-100.00,SE,128,5.0,11.0,59,0.00,,,0.00,104.000000,,2013-01-08 22:12:00,
2013-01-08 16:43:00,35.0,24.0,-100.00,SSE,150,7.0,18.0,65,0.00,,,0.00,55.000000,,2013-01-08 22:43:00,
2013-01-08 16:53:00,35.0,24.0,-100.00,SSE,150,7.0,18.0,65,0.00,,,0.00,55.000000,,2013-01-08 22:53:00,
2013-01-08 17:02:00,35.0,24.0,-100.00,SSE,150,7.0,18.0,65,0.00,,,0.00,55.000000,,2013-01-08 23:02:00,
2013-01-08 17:12:00,35.0,24.0,-100.00,SSE,150,7.0,18.0,65,0.00,,,0.00,55.000000,,2013-01-08 23:12:00,
2013-01-08 17:33:00,33.0,25.0,-100.00,SSE,168,4.0,12.0,72,0.00,,,0.00,7.000000,,2013-01-08 23:33:00,
2013-01-08 17:43:00,33.0,25.0,-100.00,SSE,168,4.0,12.0,72,0.00,,,0.00,7.000000,,2013-01-08 23:43:00,
2013-01-08 17:53:00,33.0,25.0,-100.00,SSE,168,4.0,12.0,72,0.00,,,0.00,7.000000,,2013-01-08 23:53:00,
2013-01-08 18:03:00,33.0,25.0,-100.00,SSE,168,4.0,12.0,72,0.00,,,0.00,7.000000,,2013-01-09 00:03:00,
2013-01-08 18:12:00,33.0,25.0,-100.00,SSE,168,4.0,12.0,72,0.00,,,0.00,7.000000,,2013-01-09 00:12:00,
2013-01-08 18:43:00,33.0,26.0,-100.00,South,179,8.0,18.0,74,0.00,,,0.00,0.000000,,2013-01-09 00:43:00,
2013-01-08 18:53:00,33.0,26.0,-100.00,South,179,8.0,18.0,74,0.00,,,0.00,0.000000,,2013-01-09 00:53:00,
2013-01-08 19:02:00,33.0,26.0,-100.00,South,179,8.0,18.0,74,0.00,,,0.00,0.000000,,2013-01-09 01:02:00,
2013-01-08 19:12:00,33.0,26.0,-100.00,South,179,8.0,18.0,74,0.00,,,0.00,0.000000,,2013-01-09 01:12:00,
2013-01-08 19:43:00,33.0,27.0,-100.00,South,187,5.0,15.0,77,0.00,,,0.00,0.000000,,2013-01-09 01:43:00,
2013-01-08 19:52:00,33.0,27.0,-100.00,South,187,5.0,15.0,77,0.00,,,0.00,0.000000,,2013-01-09 01:52:00,
2013-01-08 20:02:00,33.0,27.0,-100.00,South,187,5.0,15.0,77,0.00,,,0.00,0.000000,,2013-01-09 02:02:00,
2013-01-08 20:12:00,33.0,27.0,-100.00,South,187,5.0,15.0,77,0.00,,,0.00,0.000000,,2013-01-09 02:12:00,
2013-01-08 20:43:00,33.0,27.0,-100.00,SW,217,6.0,13.0,79,0.00,,,0.00,0.000000,,2013-01-09 02:43:00,
2013-01-08 20:53:00,33.0,27.0,-100.00,SW,217,6.0,13.0,79,0.00,,,0.00,0.000000,,2013-01-09 02:53:00,
2013-01-08 21:03:00,33.0,27.0,-100.00,SW,217,6.0,13.0,79,0.00,,,0.00,0.000000,,2013-01-09 03:03:00,
2013-01-08 21:12:00,33.0,27.0,-100.00,SW,217,6.0,13.0,79,0.00,,,0.00,0.000000,,2013-01-09 03:12:00,
2013-01-08 21:33:00,32.0,26.0,-100.00,WSW,252,8.0,21.0,79,0.00,,,0.00,0.000000,,2013-01-09 03:33:00,
2013-01-08 21:43:00,32.0,26.0,-100.00,WSW,252,8.0,21.0,79,0.00,,,0.00,0.000000,,2013-01-09 03:43:00,
2013-01-08 21:53:00,32.0,26.0,-100.00,WSW,252,8.0,21.0,79,0.00,,,0.00,0.000000,,2013-01-09 03:53:00,
2013-01-08 22:02:00,32.0,26.0,-100.00,WSW,252,8.0,21.0,79,0.00,,,0.00,0.000000,,2013-01-09 04:02:00,
2013-01-08 22:12:00,32.0,26.0,-100.00,WSW,252,8.0,21.0,79,0.00,,,0.00,0.000000,,2013-01-09 04:12:00,
2013-01-08 22:33:00,32.0,26.0,-100.00,WSW,243,5.0,17.0,79,0.00,,,0.00,0.000000,,2013-01-09 04:33:00,
2013-01-08 22:43:00,32.0,26.0,-100.00,WSW,243,5.0,17.0,79,0.00,,,0.00,0.000000,,2013-01-09 04:43:00,
2013-01-08 22:52:00,32.0,26.0,-100.00,WSW,243,5.0,17.0,79,0.00,,,0.00,0.000000,,2013-01-09 04:52:00,
2013-01-08 23:03:00,32.0,26.0,-100.00,WSW,243,5.0,17.0,79,0.00,,,0.00,0.000000,,2013-01-09 05:03:00,
2013-01-08 23:12:00,32.0,26.0,-100.00,WSW,243,5.0,17.0,79,0.00,,,0.00,0.000000,,2013-01-09 05:12:00,
2013-01-08 23:33:00,31.0,26.0,-100.00,WSW,242,5.0,11.0,81,0.00,,,0.00,0.000000,,2013-01-09 05:33:00,
2013-01-08 23:43:00,31.0,26.0,-100.00,WSW,242,5.0,11.0,81,0.00,,,0.00,0.000000,,2013-01-09 05:43:00,
2013-01-08 23:53:00,31.0,26.0,-100.00,WSW,242,5.0,11.0,81,0.00,,,0.00,0.000000,,2013-01-09 05:53:00,